Time;durP1;ratioP1;P1;durP2;ratioP2;P2;SDS_P1;SDS_P2;PMS_P1;PMS_P2;Temp;Humidity;BMP_temperature;BMP_pressure;BME280_temperature;BME280_humidity;BME280_pressure;Samples;Min_cycle;Max_cycle;Signal;HPM_P1;HPM_P2
2022/04/11 00:01:27;;;;;;;0.80;0.80;;;0.50;99.90;;;;;;4940134;28;20037;-79
2022/04/11 00:03:53;;;;;;;1.00;1.00;;;0.50;99.90;;;;;;4963390;28;20149;-84
2022/04/11 00:06:19;;;;;;;0.80;0.80;;;0.50;99.90;;;;;;4953526;28;20035;-83
2022/04/11 00:08:44;;;;;;;0.82;0.82;;;1.00;99.90;;;;;;4937474;28;20066;-83
2022/04/11 00:11:10;;;;;;;0.90;0.90;;;0.50;99.90;;;;;;4933036;28;20031;-83
2022/04/11 00:13:36;;;;;;;0.90;0.90;;;0.40;99.90;;;;;;4937686;29;20166;-83
2022/04/11 00:16:01;;;;;;;0.70;0.70;;;1.10;99.90;;;;;;4937198;28;20211;-84
2022/04/11 00:18:27;;;;;;;0.85;0.85;;;0.30;99.90;;;;;;4936739;28;20046;-85
2022/04/11 00:20:53;;;;;;;0.90;0.90;;;1.60;99.90;;;;;;4918256;28;20477;-85
2022/04/11 00:23:19;;;;;;;0.70;0.70;;;0.20;99.90;;;;;;4948855;28;20031;-83
2022/04/11 00:25:45;;;;;;;0.90;0.90;;;0.20;99.90;;;;;;4922296;28;20574;-82
2022/04/11 00:28:11;;;;;;;0.93;0.93;;;0.50;99.90;;;;;;4944799;28;20049;-80
2022/04/11 00:30:36;;;;;;;;;;;0.10;99.90;;;;;;4947661;28;20054;-82
2022/04/11 00:33:02;;;;;;;0.90;0.90;;;1.40;99.90;;;;;;4962399;28;19920;-84
2022/04/11 00:35:29;;;;;;;0.93;0.93;;;0.10;99.90;;;;;;4939723;28;20046;-85
2022/04/11 00:37:55;;;;;;;0.80;0.80;;;0.10;99.90;;;;;;4955654;28;20046;-83
2022/04/11 00:40:24;;;;;;;0.80;0.80;;;0.10;99.90;;;;;;4954200;28;20516;-86
2022/04/11 00:42:50;;;;;;;;;;;0.10;99.90;;;;;;4942820;28;20051;-82
2022/04/11 00:45:23;;;;;;;0.82;0.82;;;0.00;99.90;;;;;;4968326;28;20267;-83
2022/04/11 00:47:50;;;;;;;0.85;0.85;;;0.10;99.90;;;;;;4969586;28;20039;-81
2022/04/11 00:50:16;;;;;;;0.90;0.90;;;-0.10;99.90;;;;;;4939037;28;20078;-83
2022/04/11 00:52:45;;;;;;;1.00;1.00;;;0.80;99.90;;;;;;4937899;28;20083;-83
2022/04/11 00:55:13;;;;;;;0.80;0.80;;;-0.20;99.90;;;;;;4968679;28;20053;-80
2022/04/11 00:57:39;;;;;;;0.90;0.90;;;-0.20;99.90;;;;;;4965325;28;20061;-83
2022/04/11 01:00:06;;;;;;;;;;;-0.20;99.90;;;;;;4934819;28;20142;-82
2022/04/11 01:02:32;;;;;;;0.90;0.90;;;-0.20;99.90;;;;;;4969190;28;20005;-83
2022/04/11 01:04:58;;;;;;;0.80;0.80;;;-0.20;99.90;;;;;;4946448;29;20429;-84
2022/04/11 01:07:24;;;;;;;1.00;1.00;;;-0.20;99.90;;;;;;4927884;28;20113;-83
2022/04/11 01:09:50;;;;;;;0.93;0.93;;;-0.20;99.90;;;;;;4943968;28;20111;-82
2022/04/11 01:12:16;;;;;;;0.80;0.80;;;-0.20;99.90;;;;;;4937447;28;20065;-83
2022/04/11 01:14:43;;;;;;;0.63;0.63;;;-0.30;99.90;;;;;;4935233;28;20552;-84
2022/04/11 01:17:10;;;;;;;0.93;0.93;;;-0.30;99.90;;;;;;4955016;28;20035;-82
2022/04/11 01:19:36;;;;;;;0.90;0.90;;;-0.30;99.90;;;;;;4967895;28;20051;-84
2022/04/11 01:22:01;;;;;;;0.80;0.80;;;-0.40;99.90;;;;;;4980309;28;20385;-83
2022/04/11 01:24:28;;;;;;;0.85;0.85;;;-0.40;99.90;;;;;;4952296;28;20031;-82
2022/04/11 01:26:54;;;;;;;0.90;0.90;;;-0.40;99.90;;;;;;4957736;28;20046;-84
2022/04/11 01:29:22;;;;;;;;;;;-0.40;99.90;;;;;;4971227;28;20131;-83
2022/04/11 01:31:49;;;;;;;0.90;0.90;;;-0.40;99.90;;;;;;4938758;28;19933;-82
2022/04/11 01:34:15;;;;;;;0.90;0.90;;;-0.50;99.90;;;;;;4991704;28;20039;-82
2022/04/11 01:36:40;;;;;;;0.90;0.90;;;-0.50;99.90;;;;;;4943348;29;20043;-82
2022/04/11 01:39:06;;;;;;;;;;;0.30;99.90;;;;;;4955611;28;20050;-83
2022/04/11 01:41:32;;;;;;;0.90;0.90;;;-0.40;99.90;;;;;;4942064;28;19922;-83
2022/04/11 01:43:57;;;;;;;0.88;0.88;;;-0.50;99.90;;;;;;4946931;28;20042;-82
2022/04/11 01:46:23;;;;;;;0.98;0.98;;;-0.50;99.90;;;;;;4936311;28;20061;-81
2022/04/11 01:48:49;;;;;;;0.90;0.90;;;-0.50;99.90;;;;;;4967219;28;20043;-81
2022/04/11 01:51:14;;;;;;;;;;;-0.50;99.90;;;;;;4954783;28;20423;-83
2022/04/11 01:53:40;;;;;;;0.85;0.85;;;0.30;99.90;;;;;;4953603;28;20346;-81
2022/04/11 01:56:06;;;;;;;1.00;1.00;;;0.70;99.90;;;;;;4935901;28;20493;-81
2022/04/11 01:58:32;;;;;;;1.00;1.00;;;-0.20;99.90;;;;;;4948577;28;20145;-82
2022/04/11 02:00:59;;;;;;;0.90;0.90;;;-0.40;99.90;;;;;;4936793;28;20050;-83
2022/04/11 02:03:26;;;;;;;0.82;0.82;;;-0.50;99.90;;;;;;4963197;28;20109;-82
2022/04/11 02:05:54;;;;;;;1.00;1.00;;;-0.50;99.90;;;;;;4974429;28;20513;-85
2022/04/11 02:08:20;;;;;;;0.70;0.70;;;-0.50;99.90;;;;;;4936429;28;20038;-82
2022/04/11 02:10:46;;;;;;;0.70;0.70;;;-0.50;99.90;;;;;;4953793;28;20459;-82
2022/04/11 02:13:12;;;;;;;1.02;1.00;;;-0.50;99.90;;;;;;4936391;28;20083;-84
2022/04/11 02:15:39;;;;;;;0.80;0.80;;;-0.50;99.90;;;;;;4968925;28;20035;-83
2022/04/11 02:18:05;;;;;;;0.88;0.88;;;-0.50;99.90;;;;;;4951731;28;20047;-83
2022/04/11 02:20:31;;;;;;;0.90;0.90;;;-0.50;99.90;;;;;;4937108;28;20047;-83
2022/04/11 02:23:00;;;;;;;0.80;0.80;;;0.10;99.90;;;;;;4986219;28;20382;-83
2022/04/11 02:25:28;;;;;;;0.80;0.80;;;-0.50;99.90;;;;;;4965622;28;20388;-82
2022/04/11 02:27:55;;;;;;;0.80;0.80;;;-0.50;99.90;;;;;;4983256;28;20104;-83
2022/04/11 02:30:22;;;;;;;0.80;0.80;;;-0.50;99.90;;;;;;5035844;28;20066;-84
2022/04/11 02:32:49;;;;;;;1.00;1.00;;;-0.50;99.90;;;;;;4934912;28;20047;-82
2022/04/11 02:35:16;;;;;;;0.90;0.90;;;-0.60;99.90;;;;;;4948750;28;20070;-81
2022/04/11 02:37:44;;;;;;;0.90;0.90;;;-0.60;99.90;;;;;;4963573;28;20051;-82
2022/04/11 02:40:10;;;;;;;0.98;0.98;;;-0.60;99.90;;;;;;4953271;28;20411;-83
2022/04/11 02:42:36;;;;;;;0.90;0.90;;;-0.60;99.90;;;;;;5009614;28;20038;-83
2022/04/11 02:45:03;;;;;;;0.80;0.80;;;-0.60;99.90;;;;;;4962902;28;20049;-83
2022/04/11 02:47:29;;;;;;;0.90;0.90;;;-0.30;99.90;;;;;;4944173;29;20092;-82
2022/04/11 02:49:55;;;;;;;0.80;0.80;;;0.10;99.90;;;;;;5031359;28;20146;-83
2022/04/11 02:52:21;;;;;;;0.90;0.90;;;-0.70;99.90;;;;;;4941729;28;20043;-82
2022/04/11 02:54:47;;;;;;;0.90;0.90;;;-0.60;99.90;;;;;;4917870;28;20038;-82
2022/04/11 02:57:13;;;;;;;0.80;0.80;;;-0.70;99.90;;;;;;4931641;29;20043;-82
2022/04/11 02:59:39;;;;;;;0.85;0.85;;;-0.70;99.90;;;;;;4941492;28;20058;-81
2022/04/11 03:02:05;;;;;;;0.80;0.80;;;-0.60;99.90;;;;;;4933453;28;20039;-81
2022/04/11 03:04:31;;;;;;;1.00;1.00;;;-0.70;99.90;;;;;;4963456;28;20046;-81
2022/04/11 03:06:57;;;;;;;0.82;0.82;;;-0.70;99.90;;;;;;4933164;28;20115;-80
2022/04/11 03:09:23;;;;;;;0.90;0.90;;;-0.20;99.90;;;;;;4947983;28;20049;-81
2022/04/11 03:11:49;;;;;;;0.88;0.88;;;-0.80;99.90;;;;;;4953506;28;20038;-81
2022/04/11 03:14:15;;;;;;;0.90;0.90;;;-0.80;99.90;;;;;;4935251;28;20480;-82
2022/04/11 03:16:41;;;;;;;0.85;0.85;;;-0.70;99.90;;;;;;4969425;28;20069;-81
2022/04/11 03:19:08;;;;;;;0.93;0.93;;;-0.70;99.90;;;;;;4952142;28;20050;-81
2022/04/11 03:21:34;;;;;;;0.80;0.80;;;-0.70;99.90;;;;;;4934438;29;20047;-82
2022/04/11 03:24:00;;;;;;;0.90;0.90;;;-0.70;99.90;;;;;;4942596;28;20058;-82
2022/04/11 03:26:26;;;;;;;0.80;0.80;;;-0.70;99.90;;;;;;4944226;28;20047;-81
2022/04/11 03:28:51;;;;;;;0.90;0.90;;;-0.50;99.90;;;;;;4973683;28;20030;-81
2022/04/11 03:31:17;;;;;;;0.75;0.75;;;0.10;99.90;;;;;;4928460;28;20507;-82
2022/04/11 03:33:43;;;;;;;;;;;-0.50;99.90;;;;;;4933259;28;20034;-82
2022/04/11 03:36:09;;;;;;;0.80;0.80;;;-0.50;99.90;;;;;;4952591;28;19922;-82
2022/04/11 03:38:35;;;;;;;0.98;0.98;;;-0.40;99.90;;;;;;4935838;28;20049;-83
2022/04/11 03:41:01;;;;;;;0.98;0.98;;;-0.30;99.90;;;;;;4979130;28;20134;-81
2022/04/11 03:43:27;;;;;;;0.88;0.88;;;-0.30;99.90;;;;;;4936373;28;20129;-82
2022/04/11 03:45:59;;;;;;;1.00;1.00;;;-0.20;99.90;;;;;;4955584;28;20100;-82
2022/04/11 03:48:25;;;;;;;0.90;0.90;;;-0.10;99.90;;;;;;4951158;28;20070;-80
2022/04/11 03:50:51;;;;;;;0.90;0.90;;;-0.10;99.90;;;;;;4949784;28;20054;-82
2022/04/11 03:53:18;;;;;;;0.90;0.90;;;0.00;99.90;;;;;;5008968;28;20441;-82
2022/04/11 03:55:45;;;;;;;0.85;0.85;;;0.10;99.90;;;;;;4952468;28;20043;-80
2022/04/11 03:58:11;;;;;;;0.80;0.80;;;0.10;99.90;;;;;;4950890;28;20373;-83
2022/04/11 04:00:37;;;;;;;0.90;0.90;;;0.20;99.90;;;;;;4951536;28;20096;-82
2022/04/11 04:03:14;;;;;;;0.90;0.90;;;0.20;99.90;;;;;;4950000;28;20876;-82
2022/04/11 04:05:44;;;;;;;0.82;0.82;;;1.50;99.90;;;;;;4977815;28;20170;-81
2022/04/11 04:08:11;;;;;;;0.82;0.82;;;1.40;99.90;;;;;;4978764;28;20054;-82
2022/04/11 04:10:37;;;;;;;0.80;0.80;;;0.40;99.90;;;;;;4945561;28;20046;-81
2022/04/11 04:13:03;;;;;;;0.90;0.90;;;0.50;99.90;;;;;;4968185;28;20043;-81
2022/04/11 04:15:30;;;;;;;0.80;0.80;;;0.50;99.90;;;;;;4966798;28;20049;-82
2022/04/11 04:17:56;;;;;;;0.80;0.80;;;0.50;99.90;;;;;;4955772;28;20424;-82
2022/04/11 04:20:26;;;;;;;0.80;0.80;;;0.60;99.90;;;;;;4932442;28;20553;-82
2022/04/11 04:22:56;;;;;;;0.70;0.70;;;0.60;99.90;;;;;;4953252;28;20109;-81
2022/04/11 04:25:23;;;;;;;0.80;0.80;;;0.70;99.90;;;;;;5032362;28;20046;-81
2022/04/11 04:27:49;;;;;;;0.80;0.80;;;0.70;99.90;;;;;;4971876;28;20035;-81
2022/04/11 04:30:15;;;;;;;0.80;0.80;;;0.70;99.90;;;;;;4969578;28;20107;-81
2022/04/11 04:32:41;;;;;;;0.90;0.90;;;0.70;99.90;;;;;;4981941;28;20040;-81
2022/04/11 04:35:08;;;;;;;0.80;0.80;;;0.90;99.90;;;;;;4964713;28;20125;-81
2022/04/11 04:37:34;;;;;;;0.80;0.80;;;0.80;99.90;;;;;;4958385;28;20507;-82
2022/04/11 04:40:00;;;;;;;0.80;0.80;;;1.40;99.90;;;;;;4960992;28;20063;-81
2022/04/11 04:42:26;;;;;;;0.90;0.90;;;0.80;99.90;;;;;;4963208;28;20126;-80
2022/04/11 04:44:52;;;;;;;;;;;0.90;99.90;;;;;;4938698;28;20047;-80
2022/04/11 04:47:18;;;;;;;0.88;0.88;;;0.90;99.90;;;;;;4965620;28;19967;-81
2022/04/11 04:49:45;;;;;;;0.80;0.80;;;0.80;99.90;;;;;;4950435;28;20100;-81
2022/04/11 04:52:11;;;;;;;0.90;0.90;;;0.90;99.90;;;;;;4962044;28;20049;-79
2022/04/11 04:54:38;;;;;;;0.80;0.80;;;1.00;99.90;;;;;;4979851;28;20038;-82
2022/04/11 04:57:05;;;;;;;0.70;0.70;;;1.00;99.90;;;;;;4960124;28;20043;-82
2022/04/11 04:59:30;;;;;;;0.80;0.80;;;1.00;99.90;;;;;;4961538;28;20035;-81
2022/04/11 05:01:56;;;;;;;0.90;0.90;;;2.20;99.90;;;;;;4939538;29;20552;-81
2022/04/11 05:04:22;;;;;;;0.85;0.85;;;1.10;99.90;;;;;;4946856;28;20389;-79
2022/04/11 05:06:48;;;;;;;0.70;0.70;;;1.20;99.90;;;;;;4961100;28;20054;-82
2022/04/11 05:09:13;;;;;;;0.80;0.80;;;2.10;99.90;;;;;;4961054;28;20043;-81
2022/04/11 05:11:40;;;;;;;0.70;0.70;;;1.20;99.90;;;;;;4958400;28;20733;-81
2022/04/11 05:14:06;;;;;;;0.90;0.90;;;1.40;99.90;;;;;;4963784;28;20120;-82
2022/04/11 05:16:35;;;;;;;0.80;0.80;;;1.40;99.90;;;;;;4963052;28;20038;-81
2022/04/11 05:19:02;;;;;;;0.80;0.80;;;1.40;99.90;;;;;;4979957;28;20468;-80
2022/04/11 05:21:30;;;;;;;0.70;0.70;;;1.90;99.90;;;;;;4946747;28;20046;-82
2022/04/11 05:23:56;;;;;;;0.80;0.80;;;1.90;99.90;;;;;;4952247;28;20484;-82
2022/04/11 05:26:22;;;;;;;;;;;1.60;99.90;;;;;;5028448;28;20086;-82
2022/04/11 05:28:49;;;;;;;0.80;0.80;;;1.70;99.90;;;;;;4955501;28;19961;-82
2022/04/11 05:31:16;;;;;;;0.77;0.77;;;2.70;99.90;;;;;;4976060;28;20055;-82
2022/04/11 05:33:45;;;;;;;0.70;0.70;;;2.30;99.90;;;;;;4967710;28;20081;-81
2022/04/11 05:36:11;;;;;;;0.70;0.70;;;1.90;99.90;;;;;;4982620;28;20201;-83
2022/04/11 05:38:37;;;;;;;;;;;2.00;99.90;;;;;;4937982;29;20089;-83
2022/04/11 05:41:06;;;;;;;0.60;0.60;;;2.10;99.90;;;;;;5005501;28;19926;-83
2022/04/11 05:43:32;;;;;;;0.70;0.70;;;2.10;99.90;;;;;;4972977;28;20070;-84
2022/04/11 05:46:01;;;;;;;0.73;0.73;;;2.20;99.90;;;;;;4963190;28;20252;-82
2022/04/11 05:48:30;;;;;;;0.68;0.68;;;2.50;99.90;;;;;;4991038;28;20103;-82
2022/04/11 05:50:59;;;;;;;0.70;0.70;;;2.30;99.90;;;;;;4970569;28;20038;-82
2022/04/11 05:53:25;;;;;;;0.75;0.75;;;2.40;99.90;;;;;;4940273;28;20058;-82
2022/04/11 05:55:50;;;;;;;;;;;2.40;99.90;;;;;;4939545;28;20042;-82
2022/04/11 05:58:18;;;;;;;0.70;0.70;;;2.40;99.90;;;;;;4971786;28;19940;-83
2022/04/11 06:00:44;;;;;;;0.70;0.70;;;2.60;99.90;;;;;;4939843;28;20043;-83
2022/04/11 06:03:10;;;;;;;0.80;0.80;;;2.50;99.90;;;;;;4949032;28;20050;-80
2022/04/11 06:05:37;;;;;;;0.80;0.80;;;2.60;99.90;;;;;;4999597;28;20073;-83
2022/04/11 06:08:03;;;;;;;0.75;0.75;;;2.50;99.90;;;;;;4951932;28;20065;-83
2022/04/11 06:10:29;;;;;;;0.60;0.60;;;2.70;99.90;;;;;;4987642;28;20407;-84
2022/04/11 06:12:56;;;;;;;0.70;0.70;;;2.80;99.90;;;;;;4951772;29;20039;-82
2022/04/11 06:15:35;;;;;;;0.70;0.70;;;2.80;99.90;;;;;;4920988;28;20074;-81
2022/04/11 06:18:01;;;;;;;0.70;0.70;;;2.90;99.90;;;;;;4955046;28;20044;-79
2022/04/11 06:20:26;;;;;;;0.70;0.70;;;2.90;99.90;;;;;;4938839;29;20445;-79
2022/04/11 06:22:52;;;;;;;0.70;0.70;;;3.20;99.90;;;;;;4938467;28;20050;-83
2022/04/11 06:25:20;;;;;;;0.60;0.60;;;3.20;99.90;;;;;;4945873;28;20038;-84
2022/04/11 06:27:48;;;;;;;0.70;0.70;;;3.30;99.90;;;;;;4982287;28;20045;-85
2022/04/11 06:30:14;;;;;;;0.50;0.50;;;3.30;99.90;;;;;;4963872;28;20071;-80
2022/04/11 06:32:40;;;;;;;0.60;0.60;;;3.20;99.90;;;;;;4934862;28;20082;-81
2022/04/11 06:35:06;;;;;;;0.70;0.70;;;3.50;99.90;;;;;;4956969;28;20038;-81
2022/04/11 06:37:32;;;;;;;0.60;0.60;;;3.60;99.90;;;;;;4938202;28;20398;-80
2022/04/11 06:39:58;;;;;;;0.60;0.60;;;3.70;99.90;;;;;;4952543;28;20062;-82
2022/04/11 06:42:24;;;;;;;0.50;0.50;;;3.80;99.90;;;;;;4940306;28;20031;-82
2022/04/11 06:44:50;;;;;;;;;;;3.90;99.90;;;;;;4956671;28;20043;-80
2022/04/11 06:47:18;;;;;;;0.60;0.60;;;4.10;99.90;;;;;;4943116;28;20384;-84
2022/04/11 06:49:44;;;;;;;0.70;0.70;;;4.20;99.90;;;;;;4966000;28;20047;-82
2022/04/11 06:52:10;;;;;;;0.60;0.60;;;4.30;99.90;;;;;;4946362;28;20482;-80
2022/04/11 06:54:38;;;;;;;0.60;0.60;;;4.40;99.90;;;;;;4936884;28;20122;-83
2022/04/11 06:57:13;;;;;;;0.70;0.70;;;3.30;99.90;;;;;;4944377;28;20054;-83
2022/04/11 06:59:39;;;;;;;0.70;0.70;;;6.10;99.90;;;;;;4964859;28;20046;-80
2022/04/11 07:02:07;;;;;;;0.73;0.73;;;4.80;99.90;;;;;;4948856;28;20149;-83
2022/04/11 07:04:33;;;;;;;0.60;0.60;;;4.90;99.90;;;;;;4932349;28;20480;-85
2022/04/11 07:06:59;;;;;;;0.50;0.50;;;5.00;99.90;;;;;;4978745;28;20083;-82
2022/04/11 07:09:24;;;;;;;0.52;0.52;;;5.20;99.90;;;;;;4933974;28;20162;-86
2022/04/11 07:11:50;;;;;;;0.57;0.57;;;5.30;99.90;;;;;;4968137;28;20123;-79
2022/04/11 07:14:16;;;;;;;0.60;0.60;;;5.40;99.90;;;;;;4958541;28;20047;-83
2022/04/11 07:16:41;;;;;;;0.60;0.60;;;6.20;99.90;;;;;;4953765;28;20057;-85
2022/04/11 07:19:07;;;;;;;0.60;0.60;;;5.70;99.90;;;;;;4930943;28;20067;-81
2022/04/11 07:21:33;;;;;;;0.50;0.50;;;5.80;99.90;;;;;;4970868;28;20066;-82
2022/04/11 07:23:59;;;;;;;0.50;0.50;;;7.50;99.90;;;;;;4942501;28;20039;-82
2022/04/11 07:26:25;;;;;;;0.50;0.50;;;6.00;99.90;;;;;;4945412;28;20039;-78
2022/04/11 07:28:51;;;;;;;0.60;0.60;;;6.50;99.90;;;;;;4960265;28;20508;-79
2022/04/11 07:31:17;;;;;;;0.60;0.60;;;6.30;99.90;;;;;;4917202;28;20043;-83
2022/04/11 07:33:43;;;;;;;0.50;0.50;;;6.50;99.90;;;;;;4968663;28;20110;-82
2022/04/11 07:36:10;;;;;;;0.50;0.50;;;6.50;99.90;;;;;;4956707;28;20104;-84
2022/04/11 07:38:41;;;;;;;0.50;0.50;;;7.10;99.90;;;;;;4971302;28;20043;-83
2022/04/11 07:41:09;;;;;;;0.50;0.50;;;6.70;99.90;;;;;;4943839;28;20050;-83
2022/04/11 07:43:34;;;;;;;0.60;0.60;;;6.80;99.90;;;;;;5012047;28;20492;-80
2022/04/11 07:46:04;;;;;;;0.55;0.55;;;7.40;99.90;;;;;;4983335;28;20043;-83
2022/04/11 07:48:30;;;;;;;0.57;0.57;;;7.00;99.90;;;;;;4958751;28;20150;-82
2022/04/11 07:50:56;;;;;;;0.63;0.63;;;7.10;99.90;;;;;;4931286;28;20129;-82
2022/04/11 07:53:22;;;;;;;0.60;0.60;;;7.20;99.90;;;;;;4936768;28;20103;-81
2022/04/11 07:55:48;;;;;;;0.60;0.60;;;7.40;99.90;;;;;;4932814;28;20051;-80
2022/04/11 07:58:15;;;;;;;0.50;0.50;;;7.40;99.90;;;;;;4932299;28;20050;-83
2022/04/11 08:00:42;;;;;;;0.50;0.50;;;7.50;99.90;;;;;;4925175;28;20100;-80
2022/04/11 08:03:08;;;;;;;0.50;0.50;;;7.60;99.90;;;;;;4966408;28;20110;-79
2022/04/11 08:05:34;;;;;;;0.60;0.60;;;7.70;99.90;;;;;;4905368;28;20055;-83
2022/04/11 08:08:01;;;;;;;0.50;0.50;;;7.70;99.90;;;;;;4948404;28;20042;-81
2022/04/11 08:10:27;;;;;;;0.38;0.38;;;7.80;99.90;;;;;;4950678;28;20085;-82
2022/04/11 08:12:59;;;;;;;0.50;0.50;;;7.80;99.90;;;;;;4934437;28;20050;-82
2022/04/11 08:15:35;;;;;;;0.60;0.60;;;7.70;99.90;;;;;;4954076;28;20120;-85
2022/04/11 08:18:06;;;;;;;0.50;0.50;;;7.70;99.90;;;;;;4966765;28;20090;-85
2022/04/11 08:20:34;;;;;;;0.60;0.60;;;7.70;99.90;;;;;;4937365;28;20058;-80
2022/04/11 08:23:00;;;;;;;0.60;0.60;;;7.80;99.90;;;;;;4938804;28;20469;-80
2022/04/11 08:25:26;;;;;;;0.63;0.63;;;7.90;99.90;;;;;;4938508;28;20130;-83
2022/04/11 08:27:52;;;;;;;0.50;0.50;;;8.00;99.90;;;;;;4980628;28;20058;-83
2022/04/11 08:30:18;;;;;;;0.60;0.60;;;8.00;99.90;;;;;;4980890;28;20055;-83
2022/04/11 08:32:46;;;;;;;0.60;0.60;;;8.10;99.90;;;;;;4952137;28;20092;-84
2022/04/11 08:35:13;;;;;;;0.70;0.70;;;8.40;99.90;;;;;;4954638;28;20046;-80
2022/04/11 08:37:42;;;;;;;0.50;0.50;;;8.30;99.90;;;;;;4951498;28;20038;-81
2022/04/11 08:40:13;;;;;;;0.57;0.57;;;8.40;99.90;;;;;;4934688;28;20047;-80
2022/04/11 08:42:42;;;;;;;0.45;0.45;;;8.50;99.90;;;;;;4948474;28;20047;-79
2022/04/11 08:45:09;;;;;;;0.60;0.60;;;8.70;99.90;;;;;;4947992;28;20140;-81
2022/04/11 08:47:35;;;;;;;0.60;0.60;;;8.80;99.90;;;;;;4950944;28;20031;-79
2022/04/11 08:50:05;;;;;;;0.40;0.40;;;9.00;99.90;;;;;;4967693;28;20050;-79
2022/04/11 08:52:33;;;;;;;0.57;0.57;;;9.10;99.90;;;;;;4982547;28;20090;-78
2022/04/11 08:55:00;;;;;;;0.60;0.60;;;9.20;99.90;;;;;;4982615;28;20042;-81
2022/04/11 08:57:35;;;;;;;0.40;0.40;;;9.30;99.90;;;;;;4942164;28;20082;-84
2022/04/11 09:00:20;;;;;;;0.50;0.50;;;8.80;99.90;;;;;;4975605;28;20469;-86
2022/04/11 09:02:47;;;;;;;0.43;0.43;;;9.50;99.90;;;;;;4950021;28;20043;-88
2022/04/11 09:05:22;;;;;;;0.50;0.50;;;8.50;99.90;;;;;;4994383;28;20294;-80
2022/04/11 09:08:07;;;;;;;0.60;0.60;;;9.60;99.90;;;;;;4966695;28;20043;-84
2022/04/11 09:10:54;;;;;;;0.60;0.60;;;9.70;99.90;;;;;;4957137;28;20038;-86
2022/04/11 09:13:47;;;;;;;0.43;0.43;;;9.80;99.90;;;;;;4966411;28;20057;-84
2022/04/11 09:16:14;;;;;;;0.50;0.50;;;10.00;99.90;;;;;;4939923;28;20051;-84
2022/04/11 09:18:50;;;;;;;0.40;0.40;;;10.00;99.90;;;;;;4971299;28;20039;-84
2022/04/11 09:21:19;;;;;;;0.43;0.43;;;10.10;99.90;;;;;;4955276;28;20096;-82
2022/04/11 09:23:45;;;;;;;0.40;0.40;;;10.10;99.90;;;;;;4961604;28;20039;-82
2022/04/11 09:26:22;;;;;;;0.50;0.50;;;10.20;99.90;;;;;;4956941;28;20052;-80
2022/04/11 09:29:02;;;;;;;0.50;0.50;;;10.20;99.90;;;;;;4953660;28;20074;-81
2022/04/11 09:31:29;;;;;;;0.40;0.40;;;10.20;99.90;;;;;;4982869;28;20503;-79
2022/04/11 09:33:55;;;;;;;0.40;0.40;;;10.20;99.90;;;;;;4954176;28;20131;-81
2022/04/11 09:36:21;;;;;;;0.40;0.40;;;10.20;99.90;;;;;;4954036;28;20129;-81
2022/04/11 09:39:00;;;;;;;0.40;0.40;;;11.10;99.90;;;;;;4956033;28;20041;-81
2022/04/11 09:41:34;;;;;;;0.40;0.40;;;10.40;99.90;;;;;;5015952;28;20233;-77
2022/04/11 09:44:26;;;;;;;0.30;0.30;;;10.40;99.90;;;;;;4968476;28;20168;-83
2022/04/11 09:46:54;;;;;;;0.38;0.38;;;10.50;99.90;;;;;;4959054;28;20147;-78
2022/04/11 09:49:20;;;;;;;0.45;0.45;;;10.50;99.90;;;;;;4941386;28;20074;-81
2022/04/11 09:52:05;;;;;;;;;;;10.60;99.90;;;;;;4946257;28;20069;-81
2022/04/11 09:54:32;;;;;;;0.30;0.30;;;10.80;99.90;;;;;;4945020;28;20451;-79
2022/04/11 09:56:59;;;;;;;0.40;0.40;;;10.60;99.90;;;;;;4956874;28;20121;-81
2022/04/11 09:59:25;;;;;;;0.47;0.47;;;10.70;99.90;;;;;;4954176;28;20462;-82
2022/04/11 10:01:51;;;;;;;;;;;10.70;99.90;;;;;;4953923;28;20435;-80
2022/04/11 10:04:20;;;;;;;0.50;0.50;;;10.80;99.90;;;;;;4935207;28;19919;-83
2022/04/11 10:06:48;;;;;;;0.50;0.50;;;10.80;99.90;;;;;;4962355;28;20035;-81
2022/04/11 10:09:15;;;;;;;0.50;0.50;;;10.90;99.90;;;;;;4935705;28;20049;-79
2022/04/11 10:11:42;;;;;;;0.40;0.40;;;10.90;99.90;;;;;;4951167;28;20054;-77
2022/04/11 10:14:13;;;;;;;0.43;0.43;;;11.10;99.90;;;;;;4968517;28;20116;-79
2022/04/11 10:16:43;;;;;;;0.50;0.50;;;11.10;99.90;;;;;;4966209;28;20118;-78
2022/04/11 10:19:13;;;;;;;0.50;0.50;;;11.20;99.90;;;;;;4963347;28;20100;-85
2022/04/11 10:21:44;;;;;;;1.05;1.05;;;11.20;99.90;;;;;;4952079;28;20387;-81
2022/04/11 10:24:27;;;;;;;0.50;0.50;;;11.60;99.90;;;;;;4935654;28;20196;-84
2022/04/11 10:26:55;;;;;;;0.35;0.35;;;11.30;99.90;;;;;;4961835;28;20052;-81
2022/04/11 10:29:38;;;;;;;1.05;1.05;;;11.30;99.90;;;;;;4941153;28;20126;-81
2022/04/11 10:32:10;;;;;;;0.40;0.40;;;11.40;99.90;;;;;;4934306;28;20039;-79
2022/04/11 10:34:56;;;;;;;0.40;0.40;;;11.50;99.90;;;;;;4942384;28;20066;-80
2022/04/11 10:37:27;;;;;;;0.40;0.40;;;11.50;99.90;;;;;;4948640;28;20054;-84
2022/04/11 10:40:16;;;;;;;0.30;0.30;;;11.50;99.90;;;;;;4952783;28;20088;-78
2022/04/11 10:43:00;;;;;;;0.40;0.40;;;11.60;99.90;;;;;;4970579;28;20062;-81
2022/04/11 10:45:35;;;;;;;0.35;0.35;;;11.70;99.90;;;;;;4952358;28;20038;-83
2022/04/11 10:48:01;;;;;;;0.50;0.50;;;11.80;99.90;;;;;;4951234;28;20039;-82
2022/04/11 10:50:38;;;;;;;0.35;0.35;;;11.90;99.90;;;;;;4953107;28;20046;-83
2022/04/11 10:53:15;;;;;;;;;;;11.90;99.90;;;;;;4957098;28;20079;-81
2022/04/11 10:56:07;;;;;;;0.50;0.50;;;11.90;99.90;;;;;;4953999;28;20387;-83
2022/04/11 10:58:44;;;;;;;0.40;0.40;;;12.00;99.90;;;;;;4949040;28;20043;-82
2022/04/11 11:01:11;;;;;;;0.85;0.85;;;11.20;99.90;;;;;;4952405;28;20130;-83
2022/04/11 11:03:40;;;;;;;0.50;0.50;;;12.20;99.90;;;;;;4935543;28;20082;-81
2022/04/11 11:06:21;;;;;;;0.43;0.43;;;12.20;99.90;;;;;;4940991;28;20134;-82
2022/04/11 11:08:49;;;;;;;0.40;0.40;;;12.00;98.00;;;;;;4967460;28;20467;-85
2022/04/11 11:11:27;;;;;;;0.50;0.50;;;12.30;99.90;;;;;;4974040;28;20121;-84
2022/04/11 11:13:55;;;;;;;0.55;0.50;;;12.30;99.90;;;;;;4954601;28;20043;-83
2022/04/11 11:16:21;;;;;;;0.80;0.80;;;12.40;99.90;;;;;;4988280;28;20069;-86
2022/04/11 11:18:47;;;;;;;0.35;0.35;;;;;;;;;;4960895;28;20039;-85
2022/04/11 11:21:13;;;;;;;0.38;0.38;;;12.50;99.90;;;;;;4968545;28;20557;-84
2022/04/11 11:23:40;;;;;;;0.40;0.40;;;12.50;99.90;;;;;;4952335;28;20041;-83
2022/04/11 11:26:11;;;;;;;0.40;0.40;;;12.80;99.90;;;;;;4969928;28;20455;-84
2022/04/11 11:28:40;;;;;;;0.40;0.40;;;12.80;99.90;;;;;;4973092;28;20053;-86
2022/04/11 11:31:06;;;;;;;0.40;0.40;;;12.80;99.90;;;;;;4970150;28;20121;-88
2022/04/11 11:33:32;;;;;;;0.40;0.40;;;13.00;99.90;;;;;;4953914;28;20082;-83
2022/04/11 11:35:58;;;;;;;0.40;0.40;;;13.00;99.90;;;;;;4966531;28;20047;-80
2022/04/11 11:38:27;;;;;;;0.40;0.40;;;13.10;99.90;;;;;;4962269;28;20736;-83
2022/04/11 11:40:56;;;;;;;0.40;0.40;;;13.20;99.90;;;;;;4964893;28;20058;-79
2022/04/11 11:43:23;;;;;;;0.45;0.45;;;13.20;99.90;;;;;;4944702;29;20047;-80
2022/04/11 11:45:50;;;;;;;0.40;0.40;;;13.30;99.90;;;;;;4963466;28;20135;-77
2022/04/11 11:48:24;;;;;;;3.60;0.70;;;13.40;99.90;;;;;;4963105;28;20050;-79
2022/04/11 11:50:58;;;;;;;0.40;0.40;;;13.50;99.90;;;;;;5014609;28;20047;-80
2022/04/11 11:53:38;;;;;;;0.40;0.40;;;13.60;99.90;;;;;;4952374;28;20043;-83
2022/04/11 11:56:09;;;;;;;0.50;0.50;;;13.50;99.90;;;;;;4934832;28;20112;-81
2022/04/11 11:58:49;;;;;;;0.40;0.40;;;13.60;99.90;;;;;;4936456;28;20047;-84
2022/04/11 12:01:28;;;;;;;0.40;0.40;;;13.60;95.80;;;;;;4968992;28;20062;-85
2022/04/11 12:06:38;;;;;;;0.40;0.40;;;13.60;99.90;;;;;;4976244;28;20050;-84
2022/04/11 12:09:04;;;;;;;0.30;0.30;;;13.60;99.90;;;;;;4955774;28;20062;-85
2022/04/11 12:11:31;;;;;;;0.40;0.40;;;13.60;95.50;;;;;;4956028;28;20151;-86
2022/04/11 12:14:02;;;;;;;0.50;0.50;;;13.80;99.90;;;;;;4946495;28;20058;-87
2022/04/11 12:16:29;;;;;;;0.40;0.40;;;14.10;99.90;;;;;;4976600;28;20030;-81
2022/04/11 12:19:00;;;;;;;0.40;0.40;;;13.50;90.40;;;;;;4951572;28;20054;-82
2022/04/11 12:21:39;;;;;;;0.50;0.35;;;13.50;99.90;;;;;;4954604;28;20119;-84
2022/04/11 12:24:11;;;;;;;0.63;0.63;;;13.60;99.90;;;;;;5014349;28;20045;-84
2022/04/11 12:26:40;;;;;;;0.40;0.40;;;12.60;99.90;;;;;;4997715;28;20099;-82
2022/04/11 12:29:14;;;;;;;0.40;0.40;;;14.00;99.90;;;;;;4970007;28;20065;-82
2022/04/11 12:32:01;;;;;;;0.40;0.40;;;14.10;99.90;;;;;;4937002;28;20039;-83
2022/04/11 12:34:37;;;;;;;0.35;0.35;;;14.50;99.90;;;;;;4937525;28;20599;-82
2022/04/11 12:37:05;;;;;;;0.30;0.30;;;14.40;99.90;;;;;;4953104;28;20480;-81
2022/04/11 12:39:47;;;;;;;0.40;0.40;;;14.50;92.00;;;;;;4969212;28;20055;-80
2022/04/11 12:42:24;;;;;;;0.40;0.40;;;15.00;99.90;;;;;;4966102;28;20497;-83
2022/04/11 12:44:59;;;;;;;;;;;14.70;88.20;;;;;;4972711;28;20731;-83
2022/04/11 12:47:28;;;;;;;0.43;0.43;;;14.80;99.90;;;;;;4969928;28;19922;-88
2022/04/11 12:49:54;;;;;;;0.40;0.40;;;15.00;99.90;;;;;;4957867;28;20121;-86
2022/04/11 12:52:44;;;;;;;0.38;0.38;;;15.80;99.90;;;;;;4945053;28;20055;-86
2022/04/11 12:55:10;;;;;;;0.22;0.22;;;15.70;96.40;;;;;;4954076;28;20074;-81
2022/04/11 12:57:37;;;;;;;0.40;0.40;;;15.70;99.60;;;;;;4957875;28;20484;-84
2022/04/11 13:00:20;;;;;;;0.30;0.30;;;16.00;99.90;;;;;;4957711;28;20101;-85
2022/04/11 13:02:45;;;;;;;0.38;0.38;;;15.90;90.80;;;;;;4958866;28;20087;-84
2022/04/11 13:05:15;;;;;;;0.40;0.40;;;16.00;98.40;;;;;;4988328;28;20043;-85